MZI weather

Mopti Airport
Mopti Region, Mali

Public forecast

Using degrees Celsius for public forecast. Weather courtesy of forecast.io.

METAR (pilot weather report)

Report is more than 2 hours old.

Retrieved 2019/03/23 12:00 UTC (2 hours ago):

GAMB 231200Z 04006KT CAVOK 36/08 Q1012

TAF (pilot weather forecast)

Closest forecast is Modibo Keita International Airport, 255.3 nm (472.8 km) WSW. Retrieved 2019/03/23 12:14 UTC (2 hours ago):

TAF COR GABS 231156Z 2312/2418 28010KT 8000 FEW033 PROB40 TEMPO 2312/2318 4500 -TSSHRA SCT033 FEW045CB PROB40 TEMPO 2403/2409 4000 SHRA SCT033 FEW045CB